| time (UTC) | temp F | wind direction | speed MPH | gust MPH | rain 1hr in | rain 24hr in | rain mn in | humidity % | barometer mb |
| 20260508184953 | 58 | 225 | 18.0 | 27.0 | 0.00 | 0.00 | 0.00 | 31 | 1003.1 |
| 20260508184431 | 57 | 203 | 13.0 | 25.0 | 0.00 | 0.00 | 0.00 | 32 | 1003.1 |
| 20260508184136 | 51 | 180 | 17.0 | 25.0 | 0.00 | 0.00 | 0.00 | 48 | 1005.7 |
| 20260508183936 | 56 | 203 | 15.0 | 25.0 | 0.00 | 0.00 | 0.00 | 34 | 1003.3 |
| 20260508183412 | 57 | 203 | 17.0 | 23.0 | 0.00 | 0.00 | 0.00 | 32 | 1003.3 |
| 20260508182907 | 57 | 203 | 11.0 | 21.0 | 0.00 | 0.00 | 0.00 | 33 | 1003.2 |
| 20260508181847 | 57 | 203 | 16.0 | 25.0 | 0.00 | 0.00 | 0.00 | 34 | 1003.4 |
| 20260508181331 | 58 | 225 | 16.0 | 27.0 | 0.00 | 0.00 | 0.00 | 33 | 1003.4 |
| 20260508180309 | 58 | 225 | 19.0 | 32.0 | 0.00 | 0.00 | 0.00 | 32 | 1003.5 |
| 20260508175254 | 57 | 203 | 17.0 | 25.0 | 0.00 | 0.00 | 0.00 | 35 | 1003.6 |
| 20260508174748 | 57 | 203 | 15.0 | 27.0 | 0.00 | 0.00 | 0.00 | 34 | 1003.5 |
| 20260508174234 | 58 | 203 | 17.0 | 27.0 | 0.00 | 0.00 | 0.00 | 34 | 1003.8 |
| 20260508173723 | 58 | 180 | 17.0 | 25.0 | 0.00 | 0.00 | 0.00 | 35 | 1003.8 |
| 20260508173515 | 50 | 203 | 18.0 | 31.0 | 0.00 | 0.00 | 0.00 | 51 | 1005.0 |
| 20260508173224 | 58 | 225 | 15.0 | 25.0 | 0.00 | 0.00 | 0.00 | 34 | 1003.7 |
| 20260508172706 | 58 | 225 | 17.0 | 24.0 | 0.00 | 0.00 | 0.00 | 34 | 1003.9 |
| 20260508172155 | 59 | 225 | 15.0 | 25.0 | 0.00 | 0.00 | 0.00 | 37 | 1003.7 |
| 20260508171653 | 58 | 203 | 17.0 | 31.0 | 0.00 | 0.00 | 0.00 | 36 | 1003.8 |
| 20260508171133 | 58 | 225 | 18.0 | 31.0 | 0.00 | 0.00 | 0.00 | 35 | 1003.8 |
| 20260508170630 | 58 | 203 | 16.0 | 25.0 | 0.00 | 0.00 | 0.00 | 36 | 1003.9 |
| 20260508170115 | 58 | 225 | 17.0 | 25.0 | 0.00 | 0.00 | 0.00 | 35 | 1004.0 |
| 20260508165605 | 58 | 225 | 16.0 | 22.0 | 0.00 | 0.00 | 0.00 | 35 | 1003.7 |
| 20260508165051 | 57 | 180 | 15.0 | 21.0 | 0.00 | 0.00 | 0.00 | 37 | 1004.1 |
| 20260508164546 | 58 | 203 | 10.0 | 23.0 | 0.00 | 0.00 | 0.00 | 37 | 1003.8 |
| 20260508164034 | 57 | 225 | 12.0 | 24.0 | 0.00 | 0.00 | 0.00 | 39 | 1004.2 |
| 20260508163521 | 56 | 203 | 15.0 | 24.0 | 0.00 | 0.00 | 0.00 | 38 | 1004.3 |
| 20260508162512 | 56 | 203 | 14.0 | 27.0 | 0.00 | 0.00 | 0.00 | 37 | 1004.4 |
| 20260508162424 | 45 | 203 | 15.0 | 21.0 | 0.00 | 0.00 | 0.00 | 62 | 1004.4 |
| 20260508161442 | 56 | 203 | 17.0 | 24.0 | 0.00 | 0.00 | 0.00 | 40 | 1004.5 |
| 20260508160426 | 56 | 225 | 15.0 | 20.0 | 0.00 | 0.00 | 0.00 | 40 | 1004.5 |
| 20260508155939 | 56 | 203 | 16.0 | 22.0 | 0.00 | 0.00 | 0.00 | 41 | 1004.7 |
| 20260508155406 | 54 | 180 | 15.0 | 22.0 | 0.00 | 0.00 | 0.00 | 43 | 1004.8 |
| 20260508155010 | 42 | 203 | 12.0 | 16.0 | 0.00 | 0.00 | 0.00 | 66 | 1004.4 |
| 20260508154855 | 54 | 203 | 15.0 | 27.0 | 0.00 | 0.00 | 0.00 | 42 | 1004.7 |
| 20260508153828 | 55 | 180 | 17.0 | 24.0 | 0.00 | 0.00 | 0.00 | 42 | 1004.9 |
| 20260508153328 | 55 | 203 | 17.0 | 24.0 | 0.00 | 0.00 | 0.00 | 42 | 1005.0 |
| 20260508152805 | 53 | 203 | 15.0 | 23.0 | 0.00 | 0.00 | 0.00 | 44 | 1005.0 |
| 20260508151752 | 53 | 248 | 16.0 | 25.0 | 0.00 | 0.00 | 0.00 | 44 | 1005.2 |
| 20260508151243 | 54 | 203 | 18.0 | 25.0 | 0.00 | 0.00 | 0.00 | 43 | 1005.2 |
| 20260508151042 | 42 | 225 | 11.0 | 16.0 | 0.00 | 0.00 | 0.00 | 68 | 1004.0 |
| 20260508150225 | 53 | 203 | 16.0 | 23.0 | 0.00 | 0.00 | 0.00 | 44 | 1005.3 |
| 20260508145717 | 54 | 180 | 17.0 | 27.0 | 0.00 | 0.00 | 0.00 | 43 | 1005.3 |
| 20260508145203 | 52 | 180 | 15.0 | 27.0 | 0.00 | 0.00 | 0.00 | 45 | 1005.3 |
| 20260508144648 | 53 | 180 | 19.0 | 25.0 | 0.00 | 0.00 | 0.00 | 43 | 1005.5 |
| 20260508143623 | 53 | 203 | 19.0 | 27.0 | 0.00 | 0.00 | 0.00 | 44 | 1005.6 |
| 20260508142718 | 42 | 203 | 11.0 | 16.0 | 0.00 | 0.00 | 0.00 | 70 | 1003.4 |
| 20260508142608 | 51 | 180 | 21.0 | 29.0 | 0.00 | 0.00 | 0.00 | 46 | 1005.6 |
| 20260508142059 | 51 | 203 | 17.0 | 27.0 | 0.00 | 0.00 | 0.00 | 47 | 1005.6 |
| 20260508141552 | 52 | 203 | 21.0 | 27.0 | 0.00 | 0.00 | 0.00 | 47 | 1005.6 |
| 20260508141046 | 51 | 203 | 19.0 | 27.0 | 0.00 | 0.00 | 0.00 | 48 | 1005.7 |
| 20260508140023 | 51 | 225 | 18.0 | 25.0 | 0.00 | 0.00 | 0.00 | 47 | 1005.8 |
| 20260508135505 | 51 | 203 | 15.0 | 25.0 | 0.00 | 0.00 | 0.00 | 49 | 1005.7 |
| 20260508135001 | 50 | 203 | 16.0 | 27.0 | 0.00 | 0.00 | 0.00 | 50 | 1005.7 |
| 20260508134443 | 50 | 180 | 17.0 | 27.0 | 0.00 | 0.00 | 0.00 | 49 | 1005.7 |
| 20260508133943 | 50 | 203 | 21.0 | 27.0 | 0.00 | 0.00 | 0.00 | 49 | 1005.5 |
| 20260508133427 | 50 | 203 | 16.0 | 27.0 | 0.00 | 0.00 | 0.00 | 50 | 1005.6 |
| 20260508132921 | 49 | 180 | 17.0 | 27.0 | 0.00 | 0.00 | 0.00 | 50 | 1005.4 |
| 20260508132406 | 49 | 180 | 17.0 | 27.0 | 0.00 | 0.00 | 0.00 | 50 | 1005.4 |
| 20260508131904 | 49 | 180 | 17.0 | 27.0 | 0.00 | 0.00 | 0.00 | 50 | 1005.2 |
| 20260508130839 | 49 | 225 | 19.0 | 25.0 | 0.00 | 0.00 | 0.00 | 50 | 1005.0 |
| 20260508130331 | 50 | 225 | 21.0 | 31.0 | 0.00 | 0.00 | 0.00 | 51 | 1004.9 |
| 20260508125306 | 49 | 203 | 15.0 | 25.0 | 0.00 | 0.00 | 0.00 | 52 | 1005.0 |
| 20260508124802 | 49 | 203 | 18.0 | 27.0 | 0.00 | 0.00 | 0.00 | 53 | 1005.0 |
| 20260508124242 | 49 | 203 | 20.0 | 27.0 | 0.00 | 0.00 | 0.00 | 52 | 1004.9 |
| 20260508123737 | 49 | 180 | 16.0 | 24.0 | 0.00 | 0.00 | 0.00 | 55 | 1004.6 |
| 20260508123225 | 48 | 203 | 16.0 | 25.0 | 0.00 | 0.00 | 0.00 | 55 | 1004.8 |
| 20260508122715 | 48 | 203 | 18.0 | 25.0 | 0.00 | 0.00 | 0.00 | 56 | 1004.7 |
| 20260508122206 | 47 | 203 | 15.0 | 25.0 | 0.00 | 0.00 | 0.00 | 57 | 1004.5 |
| 20260508121754 | 47 | 203 | 14.0 | 23.0 | 0.00 | 0.00 | 0.00 | 57 | 1004.6 |
| 20260508121139 | 47 | 203 | 15.0 | 23.0 | 0.00 | 0.00 | 0.00 | 58 | 1004.9 |
| 20260508120642 | 47 | 203 | 15.0 | 23.0 | 0.00 | 0.00 | 0.00 | 59 | 1004.7 |
| 20260508120353 | 42 | 203 | 13.0 | 20.0 | 0.00 | 0.00 | 0.00 | 71 | 1003.1 |
| 20260508120137 | 46 | 203 | 14.0 | 24.0 | 0.00 | 0.00 | 0.00 | 60 | 1004.6 |
| 20260508115620 | 46 | 203 | 14.0 | 24.0 | 0.00 | 0.00 | 0.00 | 60 | 1004.7 |
| 20260508115150 | 42 | 225 | 11.0 | 20.0 | 0.00 | 0.00 | 0.00 | 71 | 1003.1 |
| 20260508115106 | 46 | 203 | 15.0 | 21.0 | 0.00 | 0.00 | 0.00 | 61 | 1004.7 |
| 20260508114045 | 45 | 203 | 13.0 | 21.0 | 0.00 | 0.00 | 0.00 | 63 | 1004.3 |
| 20260508113027 | 44 | 203 | 13.0 | 20.0 | 0.00 | 0.00 | 0.00 | 64 | 1004.1 |
| 20260508112520 | 43 | 225 | 14.0 | 18.0 | 0.00 | 0.00 | 0.00 | 65 | 1004.4 |
| 20260508111503 | 43 | 203 | 13.0 | 17.0 | 0.00 | 0.00 | 0.00 | 66 | 1004.3 |
| 20260508110826 | 42 | 203 | 11.0 | 16.0 | 0.00 | 0.00 | 0.00 | 73 | 1003.2 |
| 20260508110437 | 42 | 225 | 11.0 | 16.0 | 0.00 | 0.00 | 0.00 | 67 | 1004.4 |
| 20260508105921 | 42 | 225 | 9.0 | 15.0 | 0.00 | 0.00 | 0.00 | 67 | 1004.3 |
| 20260508105527 | 42 | 203 | 11.0 | 16.0 | 0.00 | 0.00 | 0.00 | 73 | 1003.3 |
| 20260508105417 | 42 | 203 | 9.0 | 15.0 | 0.00 | 0.00 | 0.00 | 68 | 1004.3 |
| 20260508104905 | 42 | 203 | 10.0 | 15.0 | 0.00 | 0.00 | 0.00 | 68 | 1004.3 |
| 20260508104444 | 41 | 225 | 10.0 | 15.0 | 0.00 | 0.00 | 0.00 | 76 | 1003.1 |
| 20260508104353 | 41 | 203 | 10.0 | 14.0 | 0.00 | 0.00 | 0.00 | 68 | 1004.2 |
| 20260508103845 | 41 | 225 | 10.0 | 14.0 | 0.00 | 0.00 | 0.00 | 69 | 1004.0 |
| 20260508103337 | 42 | 203 | 11.0 | 16.0 | 0.00 | 0.00 | 0.00 | 68 | 1003.9 |
| 20260508102320 | 41 | 225 | 11.0 | 18.0 | 0.00 | 0.00 | 0.00 | 68 | 1004.0 |
| 20260508101924 | 40 | 203 | 11.0 | 14.0 | 0.00 | 0.00 | 0.00 | 77 | 1002.9 |
| 20260508101759 | 42 | 203 | 11.0 | 18.0 | 0.00 | 0.00 | 0.00 | 69 | 1003.8 |
| 20260508100735 | 41 | 203 | 9.0 | 16.0 | 0.00 | 0.00 | 0.00 | 70 | 1003.6 |
| 20260508100238 | 42 | 203 | 10.0 | 18.0 | 0.00 | 0.00 | 0.00 | 69 | 1003.5 |
| 20260508095723 | 42 | 225 | 11.0 | 18.0 | 0.00 | 0.00 | 0.00 | 69 | 1003.5 |
| 20260508095210 | 42 | 180 | 11.0 | 16.0 | 0.00 | 0.00 | 0.00 | 69 | 1003.4 |
| 20260508094156 | 42 | 203 | 11.0 | 17.0 | 0.00 | 0.00 | 0.00 | 70 | 1003.6 |
| 20260508093641 | 41 | 203 | 13.0 | 18.0 | 0.00 | 0.00 | 0.00 | 70 | 1003.3 |
| 20260508093134 | 42 | 203 | 11.0 | 18.0 | 0.00 | 0.00 | 0.00 | 70 | 1003.5 |
| 20260508092615 | 41 | 225 | 11.0 | 15.0 | 0.00 | 0.00 | 0.00 | 70 | 1003.5 |
| 20260508092113 | 41 | 225 | 10.0 | 17.0 | 0.00 | 0.00 | 0.00 | 71 | 1003.5 |
| 20260508091602 | 42 | 225 | 10.0 | 17.0 | 0.00 | 0.00 | 0.00 | 71 | 1003.5 |
| 20260508091049 | 42 | 180 | 13.0 | 17.0 | 0.00 | 0.00 | 0.00 | 70 | 1003.4 |
| 20260508090540 | 42 | 180 | 11.0 | 17.0 | 0.00 | 0.00 | 0.00 | 71 | 1003.5 |
| 20260508090035 | 42 | 180 | 12.0 | 18.0 | 0.00 | 0.00 | 0.00 | 70 | 1003.5 |
| 20260508085527 | 42 | 203 | 11.0 | 18.0 | 0.00 | 0.00 | 0.00 | 71 | 1003.4 |
| 20260508085016 | 42 | 203 | 11.0 | 18.0 | 0.00 | 0.00 | 0.00 | 71 | 1003.2 |
| 20260508084456 | 42 | 225 | 12.0 | 20.0 | 0.00 | 0.00 | 0.00 | 71 | 1003.3 |
| 20260508082415 | 42 | 203 | 11.0 | 17.0 | 0.00 | 0.00 | 0.00 | 72 | 1003.1 |
| 20260508081910 | 42 | 225 | 12.0 | 16.0 | 0.00 | 0.00 | 0.00 | 72 | 1003.1 |
| 20260508080158 | 41 | 248 | 5.0 | 11.0 | 0.00 | 0.00 | 0.00 | 79 | 1003.5 |
| 20260508075832 | 41 | 225 | 11.0 | 15.0 | 0.00 | 0.00 | 0.00 | 75 | 1003.2 |
| 20260508074812 | 40 | 203 | 10.0 | 14.0 | 0.00 | 0.00 | 0.00 | 79 | 1003.0 |
| 20260508074258 | 40 | 225 | 8.0 | 11.0 | 0.00 | 0.00 | 0.00 | 80 | 1003.0 |
| 20260508073913 | 42 | 203 | 7.0 | 11.0 | 0.00 | 0.00 | 0.00 | 76 | 1003.5 |
| 20260508073232 | 40 | 225 | 8.0 | 11.0 | 0.00 | 0.00 | 0.00 | 80 | 1002.9 |
| 20260508072731 | 40 | 225 | 7.0 | 11.0 | 0.00 | 0.00 | 0.00 | 81 | 1003.1 |
| 20260508072214 | 40 | 248 | 8.0 | 11.0 | 0.00 | 0.00 | 0.00 | 81 | 1003.3 |
| 20260508071811 | 42 | 225 | 8.0 | 11.0 | 0.00 | 0.00 | 0.00 | 76 | 1003.5 |
| 20260508071709 | 40 | 225 | 7.0 | 11.0 | 0.00 | 0.00 | 0.00 | 81 | 1003.5 |
| 20260508070645 | 40 | 225 | 8.0 | 11.0 | 0.00 | 0.00 | 0.00 | 80 | 1003.5 |
| 20260508070131 | 40 | 225 | 6.0 | 9.0 | 0.00 | 0.00 | 0.00 | 80 | 1003.4 |
| 20260508065117 | 42 | 248 | 8.0 | 11.0 | 0.00 | 0.00 | 0.00 | 77 | 1003.4 |
| 20260508064048 | 42 | 225 | 7.0 | 11.0 | 0.00 | 0.00 | 0.00 | 77 | 1003.3 |
| 20260508063034 | 42 | 203 | 8.0 | 11.0 | 0.00 | 0.00 | 0.00 | 75 | 1003.5 |
| 20260508062539 | 42 | 225 | 8.0 | 13.0 | 0.00 | 0.00 | 0.00 | 76 | 1003.4 |
| 20260508062017 | 43 | 225 | 8.0 | 13.0 | 0.00 | 0.00 | 0.00 | 75 | 1003.6 |
| 20260508061509 | 43 | 225 | 7.0 | 13.0 | 0.00 | 0.00 | 0.00 | 75 | 1003.5 |
| 20260508060959 | 43 | 203 | 8.0 | 13.0 | 0.00 | 0.00 | 0.00 | 75 | 1003.5 |
| 20260508060437 | 43 | 225 | 8.0 | 11.0 | 0.00 | 0.00 | 0.00 | 74 | 1003.4 |
| 20260508060209 | 43 | 203 | 8.0 | 0.0 | 0.00 | 0.00 | 0.00 | 75 | 1003.4 |
| 20260508055102 | 44 | 203 | 8.0 | 11.0 | 0.00 | 0.00 | 0.00 | 74 | 1003.4 |
| 20260508054550 | 44 | 203 | 8.0 | 11.0 | 0.00 | 0.00 | 0.00 | 74 | 1003.7 |
| 20260508054043 | 44 | 203 | 8.0 | 11.0 | 0.00 | 0.00 | 0.00 | 74 | 1003.6 |
| 20260508053527 | 45 | 225 | 8.0 | 14.0 | 0.00 | 0.00 | 0.00 | 74 | 1003.5 |
| 20260508053027 | 45 | 203 | 8.0 | 15.0 | 0.00 | 0.00 | 0.00 | 74 | 1003.4 |
| 20260508052518 | 45 | 203 | 9.0 | 15.0 | 0.00 | 0.00 | 0.00 | 73 | 1003.6 |
| 20260508051447 | 46 | 225 | 10.0 | 14.0 | 0.00 | 0.00 | 0.00 | 74 | 1003.6 |
| 20260508050950 | 46 | 225 | 10.0 | 15.0 | 0.00 | 0.00 | 0.00 | 74 | 1003.7 |
| 20260508045922 | 46 | 203 | 9.0 | 16.0 | 0.00 | 0.00 | 0.00 | 75 | 1003.4 |
| 20260508045407 | 45 | 203 | 11.0 | 14.0 | 0.00 | 0.00 | 0.00 | 77 | 1003.4 |
| 20260508044900 | 45 | 203 | 8.0 | 13.0 | 0.00 | 0.00 | 0.00 | 80 | 1003.4 |
| 20260508044345 | 44 | 225 | 8.0 | 13.0 | 0.00 | 0.00 | 0.00 | 82 | 1003.4 |
| 20260508043326 | 44 | 225 | 8.0 | 13.0 | 0.00 | 0.00 | 0.00 | 83 | 1003.5 |
| 20260508042817 | 44 | 180 | 8.0 | 11.0 | 0.00 | 0.00 | 0.00 | 83 | 1003.6 |
| 20260508042307 | 44 | 203 | 7.0 | 11.0 | 0.00 | 0.00 | 0.00 | 83 | 1003.2 |
| 20260508041802 | 44 | 225 | 8.0 | 11.0 | 0.00 | 0.00 | 0.00 | 82 | 1003.3 |
| 20260508040740 | 44 | 225 | 7.0 | 11.0 | 0.00 | 0.00 | 0.00 | 83 | 1003.3 |
| 20260508040227 | 44 | 225 | 8.0 | 11.0 | 0.00 | 0.00 | 0.00 | 83 | 1003.3 |
| 20260508035736 | 44 | 225 | 8.0 | 11.0 | 0.00 | 0.00 | 0.00 | 83 | 1003.3 |
| 20260508035203 | 44 | 225 | 8.0 | 11.0 | 0.00 | 0.00 | 0.00 | 83 | 1003.3 |
| 20260508034146 | 44 | 225 | 8.0 | 11.0 | 0.00 | 0.00 | 0.00 | 83 | 1003.2 |
| 20260508033639 | 44 | 225 | 8.0 | 11.0 | 0.00 | 0.00 | 0.00 | 84 | 1003.2 |
| 20260508033128 | 44 | 225 | 7.0 | 11.0 | 0.00 | 0.00 | 0.00 | 85 | 1003.3 |
| 20260508032931 | 46 | 203 | 4.0 | 6.0 | 0.00 | 0.00 | 0.05 | 81 | 1002.5 |
| 20260508032616 | 44 | 225 | 6.0 | 9.0 | 0.00 | 0.00 | 0.00 | 85 | 1003.3 |
| 20260508030842 | 47 | 225 | 4.0 | 7.0 | 0.00 | 0.00 | 0.05 | 80 | 1002.4 |
| 20260508030544 | 44 | 203 | 8.0 | 11.0 | 0.00 | 0.00 | 0.00 | 84 | 1002.7 |
| 20260508030022 | 44 | 203 | 6.0 | 9.0 | 0.00 | 0.00 | 0.00 | 85 | 1002.8 |
| 20260508025526 | 44 | 203 | 6.0 | 9.0 | 0.00 | 0.00 | 0.05 | 85 | 1002.7 |
| 20260508025003 | 43 | 203 | 6.0 | 8.0 | 0.00 | 0.00 | 0.05 | 86 | 1002.6 |
| 20260508024458 | 43 | 225 | 4.0 | 6.0 | 0.00 | 0.00 | 0.05 | 86 | 1002.6 |
| 20260508023941 | 42 | 203 | 4.0 | 4.0 | 0.00 | 0.00 | 0.05 | 86 | 1002.6 |
| 20260508023433 | 42 | 203 | 4.0 | 4.0 | 0.00 | 0.00 | 0.05 | 86 | 1002.6 |
| 20260508023322 | 49 | 203 | 5.0 | 9.0 | 0.00 | 0.00 | 0.05 | 75 | 1002.4 |
| 20260508022922 | 42 | 203 | 3.0 | 4.0 | 0.00 | 0.00 | 0.05 | 86 | 1002.3 |
| 20260508022419 | 42 | 203 | 2.0 | 4.0 | 0.00 | 0.00 | 0.05 | 85 | 1002.3 |
| 20260508021900 | 43 | 225 | 2.0 | 4.0 | 0.00 | 0.00 | 0.05 | 85 | 1002.4 |
| 20260508021400 | 44 | 203 | 2.0 | 6.0 | 0.00 | 0.00 | 0.05 | 84 | 1002.3 |
| 20260508020841 | 45 | 225 | 3.0 | 6.0 | 0.00 | 0.00 | 0.05 | 83 | 1002.3 |
| 20260508020341 | 46 | 225 | 4.0 | 7.0 | 0.00 | 0.00 | 0.05 | 82 | 1002.3 |
| 20260508015819 | 46 | 203 | 4.0 | 7.0 | 0.00 | 0.00 | 0.05 | 81 | 1002.2 |
| 20260508014254 | 49 | 203 | 4.0 | 8.0 | 0.00 | 0.00 | 0.05 | 77 | 1002.3 |
| 20260508012514 | 53 | 225 | 8.0 | 11.0 | 0.00 | 0.00 | 0.05 | 70 | 1002.4 |
| 20260508012211 | 51 | 203 | 6.0 | 11.0 | 0.00 | 0.00 | 0.05 | 73 | 1002.4 |
| 20260508011706 | 51 | 203 | 8.0 | 11.0 | 0.00 | 0.00 | 0.05 | 72 | 1002.4 |
| 20260508010134 | 53 | 225 | 7.0 | 11.0 | 0.00 | 0.00 | 0.05 | 69 | 1002.4 |
| 20260508005616 | 54 | 180 | 8.0 | 11.0 | 0.00 | 0.00 | 0.05 | 68 | 1002.6 |
| 20260508002151 | 54 | 180 | 9.0 | 13.0 | 0.00 | 0.00 | 0.05 | 66 | 1002.5 |
| 20260508001643 | 54 | 180 | 8.0 | 13.0 | 0.00 | 0.00 | 0.05 | 66 | 1002.5 |
| 20260508001141 | 54 | 180 | 8.0 | 14.0 | 0.00 | 0.00 | 0.05 | 64 | 1002.5 |
| 20260508000619 | 55 | 203 | 9.0 | 15.0 | 0.00 | 0.00 | 0.05 | 63 | 1002.7 |
| 20260508000127 | 55 | 203 | 9.0 | 15.0 | 0.00 | 0.00 | 0.05 | 63 | 1002.4 |
| 20260507235555 | 55 | 203 | 8.0 | 14.0 | 0.00 | 0.00 | 0.05 | 63 | 1002.5 |
| 20260507235058 | 55 | 203 | 9.0 | 15.0 | 0.00 | 0.00 | 0.05 | 63 | 1002.5 |
| 20260507234533 | 56 | 203 | 8.0 | 15.0 | 0.00 | 0.00 | 0.05 | 63 | 1002.5 |
| 20260507233519 | 55 | 203 | 9.0 | 13.0 | 0.00 | 0.00 | 0.05 | 63 | 1002.7 |
| 20260507233232 | 58 | 180 | 11.0 | 20.0 | 0.00 | 0.00 | 0.05 | 58 | 1001.5 |
| 20260507233009 | 55 | 203 | 8.0 | 11.0 | 0.00 | 0.00 | 0.05 | 65 | 1002.8 |
| 20260507232510 | 54 | 203 | 8.0 | 11.0 | 0.00 | 0.00 | 0.05 | 65 | 1002.6 |
| 20260507231948 | 53 | 203 | 7.0 | 9.0 | 0.00 | 0.00 | 0.05 | 67 | 1002.5 |
| 20260507231001 | 53 | 203 | 4.0 | 7.0 | 0.00 | 0.00 | 0.05 | 68 | 1002.5 |
| 20260507230430 | 54 | 203 | 4.0 | 7.0 | 0.00 | 0.00 | 0.05 | 67 | 1002.4 |
| 20260507225916 | 55 | 203 | 4.0 | 9.0 | 0.00 | 0.00 | 0.05 | 66 | 1002.1 |
| 20260507225406 | 55 | 203 | 5.0 | 13.0 | 0.00 | 0.00 | 0.05 | 65 | 1002.4 |
| 20260507224337 | 56 | 203 | 8.0 | 14.0 | 0.00 | 0.00 | 0.05 | 62 | 1002.2 |
| 20260507223833 | 57 | 180 | 10.0 | 14.0 | 0.00 | 0.00 | 0.05 | 60 | 1002.1 |
| 20260507223317 | 57 | 203 | 9.0 | 16.0 | 0.00 | 0.00 | 0.05 | 60 | 1002.0 |
| 20260507222827 | 57 | 180 | 9.0 | 16.0 | 0.00 | 0.00 | 0.05 | 61 | 1001.9 |
| 20260507221748 | 58 | 180 | 11.0 | 16.0 | 0.00 | 0.00 | 0.05 | 60 | 1001.7 |
| 20260507221237 | 58 | 203 | 11.0 | 16.0 | 0.00 | 0.00 | 0.05 | 58 | 1001.5 |
| 20260507220212 | 58 | 158 | 11.0 | 20.0 | 0.00 | 0.00 | 0.05 | 58 | 1001.5 |
| 20260507215713 | 58 | 180 | 11.0 | 22.0 | 0.00 | 0.00 | 0.05 | 58 | 1001.0 |
| 20260507215149 | 58 | 158 | 12.0 | 22.0 | 0.00 | 0.00 | 0.05 | 57 | 1000.9 |
| 20260507214646 | 58 | 203 | 10.0 | 18.0 | 0.00 | 0.00 | 0.05 | 59 | 1000.8 |
| 20260507214134 | 58 | 203 | 13.0 | 20.0 | 0.00 | 0.00 | 0.05 | 58 | 1000.6 |
| 20260507213625 | 58 | 203 | 12.0 | 20.0 | 0.00 | 0.00 | 0.05 | 59 | 1000.5 |
| 20260507213123 | 58 | 203 | 11.0 | 15.0 | 0.00 | 0.00 | 0.05 | 59 | 1000.4 |
| 20260507212611 | 58 | 158 | 8.0 | 17.0 | 0.00 | 0.00 | 0.05 | 60 | 1000.4 |
| 20260507212049 | 59 | 203 | 9.0 | 17.0 | 0.00 | 0.00 | 0.05 | 59 | 1000.4 |
| 20260507211831 | 59 | 225 | 11.0 | 15.0 | 0.00 | 0.00 | 0.05 | 59 | 1000.2 |
| 20260507202026 | 60 | 203 | 13.0 | 24.0 | 0.00 | 0.00 | 0.05 | 58 | 1000.7 |
| 20260507201521 | 60 | 203 | 12.0 | 25.0 | 0.00 | 0.00 | 0.05 | 57 | 1000.6 |
| 20260507201006 | 60 | 203 | 15.0 | 27.0 | 0.00 | 0.00 | 0.05 | 57 | 1000.7 |
| 20260507200459 | 60 | 180 | 16.0 | 27.0 | 0.00 | 0.00 | 0.05 | 57 | 1000.6 |
| 20260507195444 | 60 | 180 | 21.0 | 27.0 | 0.00 | 0.00 | 0.05 | 55 | 1000.2 |
| 20260507194928 | 60 | 203 | 17.0 | 27.0 | 0.00 | 0.00 | 0.05 | 56 | 1000.1 |
| 20260507193902 | 60 | 203 | 19.0 | 31.0 | 0.00 | 0.00 | 0.05 | 55 | 1000.0 |
| 20260507193752 | 60 | 180 | 14.0 | 24.0 | 0.00 | 0.00 | 0.05 | 55 | 1000.7 |
| 20260507193401 | 61 | 203 | 18.0 | 30.0 | 0.00 | 0.00 | 0.05 | 55 | 999.6 |
| 20260507192845 | 62 | 203 | 14.0 | 29.0 | 0.00 | 0.00 | 0.05 | 55 | 999.6 |
| 20260507192341 | 62 | 203 | 20.0 | 27.0 | 0.00 | 0.00 | 0.05 | 53 | 999.4 |
| 20260507191320 | 62 | 158 | 21.0 | 34.0 | 0.00 | 0.00 | 0.05 | 52 | 999.1 |
| 20260507190812 | 62 | 203 | 21.0 | 30.0 | 0.00 | 0.00 | 0.05 | 51 | 999.1 |
| 20260507190302 | 62 | 180 | 22.0 | 32.0 | 0.00 | 0.00 | 0.05 | 52 | 999.1 |
| 20260507185747 | 62 | 180 | 19.0 | 32.0 | 0.00 | 0.00 | 0.05 | 52 | 998.6 |
| 20260507185246 | 63 | 135 | 18.0 | 29.0 | 0.00 | 0.00 | 0.05 | 51 | 998.9 |